sensor_id;sensor_type;location;lat;lon;timestamp;P1;durP1;ratioP1;P2;durP2;ratioP2
75823;SDS011;64457;51.976;9.834;2024-01-16T00:01:42;1.47;;;1.17;;
75823;SDS011;64457;51.976;9.834;2024-01-16T00:04:10;4.37;;;1.30;;
75823;SDS011;64457;51.976;9.834;2024-01-16T00:06:40;1.37;;;1.13;;
75823;SDS011;64457;51.976;9.834;2024-01-16T00:09:08;8.53;;;2.57;;
75823;SDS011;64457;51.976;9.834;2024-01-16T00:11:39;2.30;;;2.10;;
75823;SDS011;64457;51.976;9.834;2024-01-16T00:14:07;2.60;;;1.33;;
75823;SDS011;64457;51.976;9.834;2024-01-16T00:16:41;3.67;;;1.43;;
75823;SDS011;64457;51.976;9.834;2024-01-16T00:19:09;1.83;;;1.40;;
75823;SDS011;64457;51.976;9.834;2024-01-16T00:21:40;1.53;;;0.80;;
75823;SDS011;64457;51.976;9.834;2024-01-16T00:24:08;4.50;;;1.40;;
75823;SDS011;64457;51.976;9.834;2024-01-16T00:26:35;1.00;;;0.83;;
75823;SDS011;64457;51.976;9.834;2024-01-16T00:29:04;2.73;;;1.27;;
75823;SDS011;64457;51.976;9.834;2024-01-16T00:31:34;3.57;;;1.20;;
75823;SDS011;64457;51.976;9.834;2024-01-16T00:34:03;1.10;;;1.00;;
75823;SDS011;64457;51.976;9.834;2024-01-16T00:36:30;2.40;;;1.10;;
75823;SDS011;64457;51.976;9.834;2024-01-16T00:38:59;1.23;;;0.97;;
75823;SDS011;64457;51.976;9.834;2024-01-16T00:41:28;1.93;;;1.07;;
75823;SDS011;64457;51.976;9.834;2024-01-16T00:43:56;1.00;;;0.90;;
75823;SDS011;64457;51.976;9.834;2024-01-16T00:46:23;1.07;;;1.07;;
75823;SDS011;64457;51.976;9.834;2024-01-16T00:48:51;2.40;;;1.30;;
75823;SDS011;64457;51.976;9.834;2024-01-16T00:51:19;2.00;;;1.10;;
75823;SDS011;64457;51.976;9.834;2024-01-16T00:53:46;1.83;;;1.60;;
75823;SDS011;64457;51.976;9.834;2024-01-16T00:56:16;2.10;;;1.30;;
75823;SDS011;64457;51.976;9.834;2024-01-16T00:58:43;2.60;;;1.20;;
75823;SDS011;64457;51.976;9.834;2024-01-16T01:01:11;1.83;;;1.50;;
75823;SDS011;64457;51.976;9.834;2024-01-16T01:03:40;6.33;;;1.27;;
75823;SDS011;64457;51.976;9.834;2024-01-16T01:06:07;6.00;;;1.43;;
75823;SDS011;64457;51.976;9.834;2024-01-16T01:08:35;6.07;;;1.20;;
75823;SDS011;64457;51.976;9.834;2024-01-16T01:11:03;2.70;;;1.00;;
75823;SDS011;64457;51.976;9.834;2024-01-16T01:13:32;5.37;;;1.30;;
75823;SDS011;64457;51.976;9.834;2024-01-16T01:16:01;3.37;;;1.53;;
75823;SDS011;64457;51.976;9.834;2024-01-16T01:18:31;3.60;;;1.37;;
75823;SDS011;64457;51.976;9.834;2024-01-16T01:21:00;8.83;;;1.10;;
75823;SDS011;64457;51.976;9.834;2024-01-16T01:23:28;1.57;;;1.00;;
75823;SDS011;64457;51.976;9.834;2024-01-16T01:25:58;4.93;;;1.33;;
75823;SDS011;64457;51.976;9.834;2024-01-16T01:28:25;1.93;;;0.90;;
75823;SDS011;64457;51.976;9.834;2024-01-16T01:30:55;2.53;;;1.10;;
75823;SDS011;64457;51.976;9.834;2024-01-16T01:33:23;1.13;;;0.80;;
75823;SDS011;64457;51.976;9.834;2024-01-16T01:35:50;2.10;;;0.90;;
75823;SDS011;64457;51.976;9.834;2024-01-16T01:38:18;3.17;;;1.30;;
75823;SDS011;64457;51.976;9.834;2024-01-16T01:40:46;4.43;;;1.30;;
75823;SDS011;64457;51.976;9.834;2024-01-16T01:43:17;5.00;;;1.30;;
75823;SDS011;64457;51.976;9.834;2024-01-16T01:45:47;4.10;;;1.20;;
75823;SDS011;64457;51.976;9.834;2024-01-16T01:48:36;6.43;;;1.40;;
75823;SDS011;64457;51.976;9.834;2024-01-16T01:51:04;2.93;;;1.40;;
75823;SDS011;64457;51.976;9.834;2024-01-16T01:53:33;4.00;;;1.27;;
75823;SDS011;64457;51.976;9.834;2024-01-16T01:56:02;5.30;;;1.30;;
75823;SDS011;64457;51.976;9.834;2024-01-16T01:58:33;2.83;;;1.50;;
75823;SDS011;64457;51.976;9.834;2024-01-16T02:01:05;3.03;;;1.33;;
75823;SDS011;64457;51.976;9.834;2024-01-16T02:03:35;3.30;;;1.20;;
75823;SDS011;64457;51.976;9.834;2024-01-16T02:06:09;1.53;;;0.90;;
75823;SDS011;64457;51.976;9.834;2024-01-16T02:08:37;2.40;;;1.17;;
75823;SDS011;64457;51.976;9.834;2024-01-16T02:11:06;8.90;;;2.93;;
75823;SDS011;64457;51.976;9.834;2024-01-16T02:13:35;3.37;;;1.23;;
75823;SDS011;64457;51.976;9.834;2024-01-16T02:16:05;1.63;;;0.70;;
75823;SDS011;64457;51.976;9.834;2024-01-16T02:18:45;1.77;;;1.10;;
75823;SDS011;64457;51.976;9.834;2024-01-16T02:21:15;2.90;;;1.30;;
75823;SDS011;64457;51.976;9.834;2024-01-16T02:23:50;1.77;;;1.00;;
75823;SDS011;64457;51.976;9.834;2024-01-16T02:26:18;1.90;;;1.30;;
75823;SDS011;64457;51.976;9.834;2024-01-16T02:28:47;5.43;;;1.40;;
75823;SDS011;64457;51.976;9.834;2024-01-16T02:31:15;2.77;;;1.03;;
75823;SDS011;64457;51.976;9.834;2024-01-16T02:33:42;3.70;;;0.97;;
75823;SDS011;64457;51.976;9.834;2024-01-16T02:36:10;1.20;;;1.03;;
75823;SDS011;64457;51.976;9.834;2024-01-16T02:38:37;5.30;;;1.40;;
75823;SDS011;64457;51.976;9.834;2024-01-16T02:41:06;1.50;;;1.10;;
75823;SDS011;64457;51.976;9.834;2024-01-16T02:43:34;4.37;;;1.07;;
75823;SDS011;64457;51.976;9.834;2024-01-16T02:46:01;3.37;;;1.10;;
75823;SDS011;64457;51.976;9.834;2024-01-16T02:48:29;1.20;;;1.00;;
75823;SDS011;64457;51.976;9.834;2024-01-16T02:50:57;2.10;;;0.93;;
75823;SDS011;64457;51.976;9.834;2024-01-16T02:53:25;5.13;;;1.07;;
75823;SDS011;64457;51.976;9.834;2024-01-16T02:55:54;1.10;;;0.90;;
75823;SDS011;64457;51.976;9.834;2024-01-16T02:58:26;1.50;;;1.00;;
75823;SDS011;64457;51.976;9.834;2024-01-16T03:00:55;5.17;;;1.10;;
75823;SDS011;64457;51.976;9.834;2024-01-16T03:03:24;1.30;;;0.87;;
75823;SDS011;64457;51.976;9.834;2024-01-16T03:05:54;3.80;;;1.20;;
75823;SDS011;64457;51.976;9.834;2024-01-16T03:08:22;1.40;;;1.00;;
75823;SDS011;64457;51.976;9.834;2024-01-16T03:10:50;2.80;;;1.20;;
75823;SDS011;64457;51.976;9.834;2024-01-16T03:13:19;5.30;;;1.00;;
75823;SDS011;64457;51.976;9.834;2024-01-16T03:15:48;3.13;;;1.17;;
75823;SDS011;64457;51.976;9.834;2024-01-16T03:18:16;1.67;;;1.10;;
75823;SDS011;64457;51.976;9.834;2024-01-16T03:20:44;1.50;;;1.40;;
75823;SDS011;64457;51.976;9.834;2024-01-16T03:23:12;1.80;;;1.13;;
75823;SDS011;64457;51.976;9.834;2024-01-16T03:25:40;5.10;;;1.47;;
75823;SDS011;64457;51.976;9.834;2024-01-16T03:28:08;2.13;;;1.13;;
75823;SDS011;64457;51.976;9.834;2024-01-16T03:30:36;2.17;;;1.37;;
75823;SDS011;64457;51.976;9.834;2024-01-16T03:33:06;2.00;;;1.00;;
75823;SDS011;64457;51.976;9.834;2024-01-16T03:35:33;4.27;;;1.53;;
75823;SDS011;64457;51.976;9.834;2024-01-16T03:38:02;3.20;;;1.23;;
75823;SDS011;64457;51.976;9.834;2024-01-16T03:40:30;2.07;;;1.03;;
75823;SDS011;64457;51.976;9.834;2024-01-16T03:42:59;6.30;;;1.37;;
75823;SDS011;64457;51.976;9.834;2024-01-16T03:45:27;3.57;;;1.50;;
75823;SDS011;64457;51.976;9.834;2024-01-16T03:47:55;3.87;;;1.43;;
75823;SDS011;64457;51.976;9.834;2024-01-16T03:50:24;2.73;;;1.40;;
75823;SDS011;64457;51.976;9.834;2024-01-16T03:52:52;9.90;;;1.97;;
75823;SDS011;64457;51.976;9.834;2024-01-16T03:55:20;9.33;;;1.43;;
75823;SDS011;64457;51.976;9.834;2024-01-16T03:57:47;5.13;;;1.30;;
75823;SDS011;64457;51.976;9.834;2024-01-16T04:00:16;8.20;;;1.63;;
75823;SDS011;64457;51.976;9.834;2024-01-16T04:02:44;6.30;;;1.60;;
75823;SDS011;64457;51.976;9.834;2024-01-16T04:05:12;8.50;;;2.87;;
75823;SDS011;64457;51.976;9.834;2024-01-16T04:07:41;4.27;;;1.80;;
75823;SDS011;64457;51.976;9.834;2024-01-16T04:10:09;9.37;;;2.80;;
75823;SDS011;64457;51.976;9.834;2024-01-16T04:12:37;3.57;;;1.73;;
75823;SDS011;64457;51.976;9.834;2024-01-16T04:15:06;10.10;;;1.90;;
75823;SDS011;64457;51.976;9.834;2024-01-16T04:17:35;10.73;;;1.83;;
75823;SDS011;64457;51.976;9.834;2024-01-16T04:20:03;2.70;;;1.27;;
75823;SDS011;64457;51.976;9.834;2024-01-16T04:22:32;11.13;;;2.33;;
75823;SDS011;64457;51.976;9.834;2024-01-16T04:25:01;8.37;;;2.40;;
75823;SDS011;64457;51.976;9.834;2024-01-16T04:27:30;4.23;;;2.10;;
75823;SDS011;64457;51.976;9.834;2024-01-16T04:29:58;2.80;;;1.53;;
75823;SDS011;64457;51.976;9.834;2024-01-16T04:32:27;2.40;;;1.60;;
75823;SDS011;64457;51.976;9.834;2024-01-16T04:34:54;5.07;;;2.00;;
75823;SDS011;64457;51.976;9.834;2024-01-16T04:37:22;7.33;;;1.90;;
75823;SDS011;64457;51.976;9.834;2024-01-16T04:39:49;8.60;;;2.60;;
75823;SDS011;64457;51.976;9.834;2024-01-16T04:42:18;2.43;;;1.83;;
75823;SDS011;64457;51.976;9.834;2024-01-16T04:44:46;1.90;;;1.80;;
75823;SDS011;64457;51.976;9.834;2024-01-16T04:47:13;3.67;;;1.77;;
75823;SDS011;64457;51.976;9.834;2024-01-16T04:49:41;6.33;;;1.70;;
75823;SDS011;64457;51.976;9.834;2024-01-16T04:52:09;2.10;;;1.50;;
75823;SDS011;64457;51.976;9.834;2024-01-16T04:54:36;18.23;;;2.20;;
75823;SDS011;64457;51.976;9.834;2024-01-16T04:57:04;6.20;;;2.33;;
75823;SDS011;64457;51.976;9.834;2024-01-16T04:59:33;5.40;;;1.87;;
75823;SDS011;64457;51.976;9.834;2024-01-16T05:02:01;2.80;;;1.60;;
75823;SDS011;64457;51.976;9.834;2024-01-16T05:04:28;4.70;;;2.00;;
75823;SDS011;64457;51.976;9.834;2024-01-16T05:06:56;1.87;;;1.60;;
75823;SDS011;64457;51.976;9.834;2024-01-16T05:09:23;11.60;;;2.80;;
75823;SDS011;64457;51.976;9.834;2024-01-16T05:11:51;5.83;;;2.57;;
75823;SDS011;64457;51.976;9.834;2024-01-16T05:14:19;6.03;;;2.23;;
75823;SDS011;64457;51.976;9.834;2024-01-16T05:16:51;3.53;;;1.80;;
75823;SDS011;64457;51.976;9.834;2024-01-16T05:19:19;8.63;;;1.97;;
75823;SDS011;64457;51.976;9.834;2024-01-16T05:21:47;2.30;;;1.67;;
75823;SDS011;64457;51.976;9.834;2024-01-16T05:24:14;9.50;;;2.27;;
75823;SDS011;64457;51.976;9.834;2024-01-16T05:26:42;3.33;;;2.07;;
75823;SDS011;64457;51.976;9.834;2024-01-16T05:29:10;6.40;;;3.13;;
75823;SDS011;64457;51.976;9.834;2024-01-16T05:31:41;2.30;;;1.70;;
75823;SDS011;64457;51.976;9.834;2024-01-16T05:34:11;3.53;;;2.20;;
75823;SDS011;64457;51.976;9.834;2024-01-16T05:36:38;11.40;;;2.20;;
75823;SDS011;64457;51.976;9.834;2024-01-16T05:39:07;4.17;;;1.70;;
75823;SDS011;64457;51.976;9.834;2024-01-16T05:41:35;4.60;;;2.20;;
75823;SDS011;64457;51.976;9.834;2024-01-16T05:44:03;6.33;;;2.13;;
75823;SDS011;64457;51.976;9.834;2024-01-16T05:46:31;1.80;;;1.70;;
75823;SDS011;64457;51.976;9.834;2024-01-16T05:48:59;3.20;;;1.90;;
75823;SDS011;64457;51.976;9.834;2024-01-16T05:51:29;4.57;;;2.50;;
75823;SDS011;64457;51.976;9.834;2024-01-16T05:53:56;3.93;;;2.00;;
75823;SDS011;64457;51.976;9.834;2024-01-16T05:56:27;3.63;;;1.80;;
75823;SDS011;64457;51.976;9.834;2024-01-16T05:58:55;7.23;;;1.70;;
75823;SDS011;64457;51.976;9.834;2024-01-16T06:01:23;3.83;;;2.23;;
75823;SDS011;64457;51.976;9.834;2024-01-16T06:03:52;6.10;;;1.97;;
75823;SDS011;64457;51.976;9.834;2024-01-16T06:06:19;2.80;;;1.97;;
75823;SDS011;64457;51.976;9.834;2024-01-16T06:08:48;3.57;;;1.67;;
75823;SDS011;64457;51.976;9.834;2024-01-16T06:11:16;2.70;;;2.30;;
75823;SDS011;64457;51.976;9.834;2024-01-16T06:13:45;7.33;;;2.40;;
75823;SDS011;64457;51.976;9.834;2024-01-16T06:16:12;10.40;;;2.37;;
75823;SDS011;64457;51.976;9.834;2024-01-16T06:18:40;4.60;;;2.10;;
75823;SDS011;64457;51.976;9.834;2024-01-16T06:21:08;4.40;;;1.90;;
75823;SDS011;64457;51.976;9.834;2024-01-16T06:23:37;8.00;;;2.90;;
75823;SDS011;64457;51.976;9.834;2024-01-16T06:26:09;2.57;;;2.17;;
75823;SDS011;64457;51.976;9.834;2024-01-16T06:28:36;5.37;;;2.43;;
75823;SDS011;64457;51.976;9.834;2024-01-16T06:31:05;2.87;;;2.33;;
75823;SDS011;64457;51.976;9.834;2024-01-16T06:33:33;4.17;;;2.67;;
75823;SDS011;64457;51.976;9.834;2024-01-16T06:36:01;3.27;;;2.37;;
75823;SDS011;64457;51.976;9.834;2024-01-16T06:38:30;8.10;;;2.80;;
75823;SDS011;64457;51.976;9.834;2024-01-16T06:40:58;4.90;;;3.10;;
75823;SDS011;64457;51.976;9.834;2024-01-16T06:43:27;9.80;;;2.90;;
75823;SDS011;64457;51.976;9.834;2024-01-16T06:45:55;11.40;;;3.80;;
75823;SDS011;64457;51.976;9.834;2024-01-16T06:48:24;4.60;;;2.60;;
75823;SDS011;64457;51.976;9.834;2024-01-16T06:50:53;5.60;;;2.60;;
75823;SDS011;64457;51.976;9.834;2024-01-16T06:53:20;7.00;;;2.27;;
75823;SDS011;64457;51.976;9.834;2024-01-16T06:55:48;2.60;;;2.40;;
75823;SDS011;64457;51.976;9.834;2024-01-16T06:58:17;4.20;;;2.53;;
75823;SDS011;64457;51.976;9.834;2024-01-16T07:00:47;5.60;;;2.90;;
75823;SDS011;64457;51.976;9.834;2024-01-16T07:03:15;5.40;;;2.20;;
75823;SDS011;64457;51.976;9.834;2024-01-16T07:05:43;3.17;;;2.60;;
75823;SDS011;64457;51.976;9.834;2024-01-16T07:08:12;2.57;;;2.37;;
75823;SDS011;64457;51.976;9.834;2024-01-16T07:10:40;4.20;;;2.70;;
75823;SDS011;64457;51.976;9.834;2024-01-16T07:13:08;5.97;;;2.70;;
75823;SDS011;64457;51.976;9.834;2024-01-16T07:15:37;5.10;;;2.10;;
75823;SDS011;64457;51.976;9.834;2024-01-16T07:18:06;6.20;;;2.87;;
75823;SDS011;64457;51.976;9.834;2024-01-16T07:20:34;6.03;;;2.50;;
75823;SDS011;64457;51.976;9.834;2024-01-16T07:23:03;3.80;;;2.20;;
75823;SDS011;64457;51.976;9.834;2024-01-16T07:25:31;4.87;;;2.50;;
75823;SDS011;64457;51.976;9.834;2024-01-16T07:27:59;11.07;;;2.57;;
75823;SDS011;64457;51.976;9.834;2024-01-16T07:30:27;9.47;;;2.90;;
75823;SDS011;64457;51.976;9.834;2024-01-16T07:32:55;9.73;;;3.07;;
75823;SDS011;64457;51.976;9.834;2024-01-16T07:35:25;6.30;;;2.63;;
75823;SDS011;64457;51.976;9.834;2024-01-16T07:37:53;6.03;;;2.40;;
75823;SDS011;64457;51.976;9.834;2024-01-16T07:40:21;7.80;;;2.73;;
75823;SDS011;64457;51.976;9.834;2024-01-16T07:42:49;5.50;;;2.20;;
75823;SDS011;64457;51.976;9.834;2024-01-16T07:45:16;8.83;;;3.63;;
75823;SDS011;64457;51.976;9.834;2024-01-16T07:47:45;9.13;;;2.77;;
75823;SDS011;64457;51.976;9.834;2024-01-16T07:50:12;5.80;;;2.40;;
75823;SDS011;64457;51.976;9.834;2024-01-16T07:52:43;4.70;;;3.13;;
75823;SDS011;64457;51.976;9.834;2024-01-16T07:55:11;4.27;;;2.80;;
75823;SDS011;64457;51.976;9.834;2024-01-16T07:57:39;4.10;;;2.97;;
75823;SDS011;64457;51.976;9.834;2024-01-16T08:00:07;6.27;;;2.73;;
75823;SDS011;64457;51.976;9.834;2024-01-16T08:02:37;9.60;;;3.10;;
75823;SDS011;64457;51.976;9.834;2024-01-16T08:05:06;10.10;;;2.87;;
75823;SDS011;64457;51.976;9.834;2024-01-16T08:07:34;6.10;;;3.00;;
75823;SDS011;64457;51.976;9.834;2024-01-16T08:10:04;4.20;;;2.60;;
75823;SDS011;64457;51.976;9.834;2024-01-16T08:12:32;14.70;;;3.37;;
75823;SDS011;64457;51.976;9.834;2024-01-16T08:15:00;6.63;;;3.13;;
75823;SDS011;64457;51.976;9.834;2024-01-16T08:17:28;7.13;;;2.90;;
75823;SDS011;64457;51.976;9.834;2024-01-16T08:19:57;3.03;;;2.57;;
75823;SDS011;64457;51.976;9.834;2024-01-16T08:22:25;6.53;;;2.77;;
75823;SDS011;64457;51.976;9.834;2024-01-16T08:24:53;8.80;;;3.20;;
75823;SDS011;64457;51.976;9.834;2024-01-16T08:27:22;9.77;;;2.80;;
75823;SDS011;64457;51.976;9.834;2024-01-16T08:29:49;5.57;;;2.90;;
75823;SDS011;64457;51.976;9.834;2024-01-16T08:32:17;4.27;;;2.83;;
75823;SDS011;64457;51.976;9.834;2024-01-16T08:34:45;14.03;;;3.50;;
75823;SDS011;64457;51.976;9.834;2024-01-16T08:37:13;5.93;;;3.10;;
75823;SDS011;64457;51.976;9.834;2024-01-16T08:39:42;4.30;;;2.50;;
75823;SDS011;64457;51.976;9.834;2024-01-16T08:42:10;5.50;;;2.67;;
75823;SDS011;64457;51.976;9.834;2024-01-16T08:44:39;8.23;;;3.13;;
75823;SDS011;64457;51.976;9.834;2024-01-16T08:47:07;7.00;;;2.87;;
75823;SDS011;64457;51.976;9.834;2024-01-16T08:49:35;5.90;;;2.23;;
75823;SDS011;64457;51.976;9.834;2024-01-16T08:52:04;7.57;;;2.80;;
75823;SDS011;64457;51.976;9.834;2024-01-16T08:54:32;5.47;;;3.00;;
75823;SDS011;64457;51.976;9.834;2024-01-16T08:57:00;6.10;;;3.40;;
75823;SDS011;64457;51.976;9.834;2024-01-16T08:59:29;5.50;;;3.30;;
75823;SDS011;64457;51.976;9.834;2024-01-16T09:01:59;5.00;;;3.23;;
75823;SDS011;64457;51.976;9.834;2024-01-16T09:04:26;8.37;;;3.00;;
75823;SDS011;64457;51.976;9.834;2024-01-16T09:06:54;13.93;;;2.90;;
75823;SDS011;64457;51.976;9.834;2024-01-16T09:09:22;4.93;;;3.20;;
75823;SDS011;64457;51.976;9.834;2024-01-16T09:11:50;4.67;;;3.07;;
75823;SDS011;64457;51.976;9.834;2024-01-16T09:14:17;7.47;;;3.93;;
75823;SDS011;64457;51.976;9.834;2024-01-16T09:16:46;4.73;;;3.10;;
75823;SDS011;64457;51.976;9.834;2024-01-16T09:19:16;8.53;;;4.13;;
75823;SDS011;64457;51.976;9.834;2024-01-16T09:21:44;7.10;;;4.43;;
75823;SDS011;64457;51.976;9.834;2024-01-16T09:24:12;8.00;;;3.93;;
75823;SDS011;64457;51.976;9.834;2024-01-16T09:26:40;8.73;;;4.07;;
75823;SDS011;64457;51.976;9.834;2024-01-16T09:29:08;12.07;;;4.57;;
75823;SDS011;64457;51.976;9.834;2024-01-16T09:31:36;4.83;;;3.80;;
75823;SDS011;64457;51.976;9.834;2024-01-16T09:34:04;17.60;;;3.70;;
75823;SDS011;64457;51.976;9.834;2024-01-16T09:36:34;10.33;;;4.53;;
75823;SDS011;64457;51.976;9.834;2024-01-16T09:39:02;6.20;;;4.50;;
75823;SDS011;64457;51.976;9.834;2024-01-16T09:41:34;8.03;;;4.43;;
75823;SDS011;64457;51.976;9.834;2024-01-16T09:44:02;4.50;;;3.50;;
75823;SDS011;64457;51.976;9.834;2024-01-16T09:46:30;7.13;;;4.23;;
75823;SDS011;64457;51.976;9.834;2024-01-16T09:48:59;8.30;;;4.80;;
75823;SDS011;64457;51.976;9.834;2024-01-16T09:51:27;7.23;;;4.13;;
75823;SDS011;64457;51.976;9.834;2024-01-16T09:53:58;4.60;;;4.10;;
75823;SDS011;64457;51.976;9.834;2024-01-16T09:56:27;8.37;;;4.73;;
75823;SDS011;64457;51.976;9.834;2024-01-16T09:58:58;7.30;;;4.63;;
75823;SDS011;64457;51.976;9.834;2024-01-16T10:01:32;12.10;;;4.83;;
75823;SDS011;64457;51.976;9.834;2024-01-16T10:04:01;11.90;;;5.70;;
75823;SDS011;64457;51.976;9.834;2024-01-16T10:06:29;9.57;;;4.60;;
75823;SDS011;64457;51.976;9.834;2024-01-16T10:09:01;11.10;;;5.13;;
75823;SDS011;64457;51.976;9.834;2024-01-16T10:11:31;8.17;;;5.60;;
75823;SDS011;64457;51.976;9.834;2024-01-16T10:14:00;12.83;;;5.10;;
75823;SDS011;64457;51.976;9.834;2024-01-16T10:19:24;8.00;;;5.30;;
75823;SDS011;64457;51.976;9.834;2024-01-16T10:22:00;8.33;;;4.57;;
75823;SDS011;64457;51.976;9.834;2024-01-16T10:24:31;9.00;;;5.40;;
75823;SDS011;64457;51.976;9.834;2024-01-16T10:27:01;11.13;;;5.30;;
75823;SDS011;64457;51.976;9.834;2024-01-16T10:29:31;9.43;;;4.60;;
75823;SDS011;64457;51.976;9.834;2024-01-16T10:32:00;8.50;;;4.50;;
75823;SDS011;64457;51.976;9.834;2024-01-16T10:34:28;8.07;;;4.73;;
75823;SDS011;64457;51.976;9.834;2024-01-16T10:36:58;11.80;;;5.03;;
75823;SDS011;64457;51.976;9.834;2024-01-16T10:39:26;11.50;;;5.23;;
75823;SDS011;64457;51.976;9.834;2024-01-16T10:41:56;8.70;;;4.63;;
75823;SDS011;64457;51.976;9.834;2024-01-16T10:44:24;6.57;;;4.53;;
75823;SDS011;64457;51.976;9.834;2024-01-16T10:46:53;14.60;;;5.63;;
75823;SDS011;64457;51.976;9.834;2024-01-16T10:49:38;8.93;;;5.80;;
75823;SDS011;64457;51.976;9.834;2024-01-16T10:52:08;12.20;;;6.20;;
75823;SDS011;64457;51.976;9.834;2024-01-16T10:54:39;8.73;;;4.70;;
75823;SDS011;64457;51.976;9.834;2024-01-16T10:57:12;14.37;;;5.50;;
75823;SDS011;64457;51.976;9.834;2024-01-16T10:59:42;7.33;;;5.00;;
75823;SDS011;64457;51.976;9.834;2024-01-16T11:02:18;14.10;;;6.00;;
75823;SDS011;64457;51.976;9.834;2024-01-16T11:04:51;8.17;;;5.77;;
75823;SDS011;64457;51.976;9.834;2024-01-16T11:07:21;9.13;;;5.30;;
75823;SDS011;64457;51.976;9.834;2024-01-16T11:09:51;10.40;;;6.17;;
75823;SDS011;64457;51.976;9.834;2024-01-16T11:12:22;7.27;;;5.10;;
75823;SDS011;64457;51.976;9.834;2024-01-16T11:14:51;6.57;;;5.13;;
75823;SDS011;64457;51.976;9.834;2024-01-16T11:17:19;7.57;;;5.00;;
75823;SDS011;64457;51.976;9.834;2024-01-16T11:19:47;11.20;;;5.50;;
75823;SDS011;64457;51.976;9.834;2024-01-16T11:22:17;4.77;;;4.20;;
75823;SDS011;64457;51.976;9.834;2024-01-16T11:24:45;9.70;;;5.37;;
75823;SDS011;64457;51.976;9.834;2024-01-16T11:27:37;7.83;;;5.37;;
75823;SDS011;64457;51.976;9.834;2024-01-16T11:30:05;8.93;;;4.93;;
75823;SDS011;64457;51.976;9.834;2024-01-16T11:32:35;9.50;;;5.67;;
75823;SDS011;64457;51.976;9.834;2024-01-16T11:35:05;6.10;;;4.73;;
75823;SDS011;64457;51.976;9.834;2024-01-16T11:37:34;7.60;;;5.10;;
75823;SDS011;64457;51.976;9.834;2024-01-16T11:40:20;8.57;;;5.10;;
75823;SDS011;64457;51.976;9.834;2024-01-16T11:42:52;5.80;;;4.50;;
75823;SDS011;64457;51.976;9.834;2024-01-16T11:48:20;9.93;;;5.60;;
75823;SDS011;64457;51.976;9.834;2024-01-16T11:50:48;9.30;;;5.40;;
75823;SDS011;64457;51.976;9.834;2024-01-16T11:53:31;15.00;;;5.80;;
75823;SDS011;64457;51.976;9.834;2024-01-16T12:02:37;7.57;;;5.80;;
75823;SDS011;64457;51.976;9.834;2024-01-16T12:05:15;10.97;;;6.97;;
75823;SDS011;64457;51.976;9.834;2024-01-16T12:07:47;11.37;;;6.53;;
75823;SDS011;64457;51.976;9.834;2024-01-16T12:10:18;9.77;;;6.73;;
75823;SDS011;64457;51.976;9.834;2024-01-16T12:12:50;9.07;;;6.43;;
75823;SDS011;64457;51.976;9.834;2024-01-16T12:15:30;12.83;;;7.67;;
75823;SDS011;64457;51.976;9.834;2024-01-16T12:17:58;12.33;;;7.50;;
75823;SDS011;64457;51.976;9.834;2024-01-16T12:20:29;11.80;;;7.87;;
75823;SDS011;64457;51.976;9.834;2024-01-16T12:23:00;14.57;;;7.53;;
75823;SDS011;64457;51.976;9.834;2024-01-16T12:25:31;13.57;;;8.53;;
75823;SDS011;64457;51.976;9.834;2024-01-16T12:28:02;13.90;;;8.03;;
75823;SDS011;64457;51.976;9.834;2024-01-16T12:30:37;36.13;;;18.50;;
75823;SDS011;64457;51.976;9.834;2024-01-16T12:33:05;15.50;;;8.43;;
75823;SDS011;64457;51.976;9.834;2024-01-16T12:35:34;15.47;;;8.30;;
75823;SDS011;64457;51.976;9.834;2024-01-16T12:38:03;12.30;;;7.70;;
75823;SDS011;64457;51.976;9.834;2024-01-16T12:40:35;16.70;;;9.20;;
75823;SDS011;64457;51.976;9.834;2024-01-16T12:43:04;17.60;;;7.47;;
75823;SDS011;64457;51.976;9.834;2024-01-16T12:45:35;27.40;;;8.20;;
75823;SDS011;64457;51.976;9.834;2024-01-16T12:48:05;17.07;;;9.90;;
75823;SDS011;64457;51.976;9.834;2024-01-16T12:50:33;28.57;;;12.70;;
75823;SDS011;64457;51.976;9.834;2024-01-16T12:53:03;13.93;;;8.60;;
75823;SDS011;64457;51.976;9.834;2024-01-16T12:55:36;10.90;;;6.90;;
75823;SDS011;64457;51.976;9.834;2024-01-16T12:58:13;16.97;;;7.90;;
75823;SDS011;64457;51.976;9.834;2024-01-16T13:00:46;21.13;;;10.73;;
75823;SDS011;64457;51.976;9.834;2024-01-16T13:03:16;10.53;;;5.70;;
75823;SDS011;64457;51.976;9.834;2024-01-16T13:05:46;14.60;;;6.27;;
75823;SDS011;64457;51.976;9.834;2024-01-16T13:08:23;15.00;;;6.00;;
75823;SDS011;64457;51.976;9.834;2024-01-16T13:11:01;21.13;;;13.40;;
75823;SDS011;64457;51.976;9.834;2024-01-16T13:13:30;19.33;;;12.70;;
75823;SDS011;64457;51.976;9.834;2024-01-16T13:15:59;11.67;;;5.23;;
75823;SDS011;64457;51.976;9.834;2024-01-16T13:18:30;12.43;;;6.17;;
75823;SDS011;64457;51.976;9.834;2024-01-16T13:21:00;13.07;;;6.87;;
75823;SDS011;64457;51.976;9.834;2024-01-16T13:23:29;8.80;;;5.80;;
75823;SDS011;64457;51.976;9.834;2024-01-16T13:25:57;7.30;;;5.80;;
75823;SDS011;64457;51.976;9.834;2024-01-16T13:28:25;11.20;;;4.77;;
75823;SDS011;64457;51.976;9.834;2024-01-16T13:30:54;9.07;;;5.87;;
75823;SDS011;64457;51.976;9.834;2024-01-16T13:33:25;13.40;;;7.00;;
75823;SDS011;64457;51.976;9.834;2024-01-16T13:35:53;14.27;;;4.77;;
75823;SDS011;64457;51.976;9.834;2024-01-16T13:38:22;6.40;;;4.60;;
75823;SDS011;64457;51.976;9.834;2024-01-16T13:40:50;12.60;;;5.70;;
75823;SDS011;64457;51.976;9.834;2024-01-16T13:43:18;10.13;;;5.50;;
75823;SDS011;64457;51.976;9.834;2024-01-16T13:45:46;7.17;;;4.87;;
75823;SDS011;64457;51.976;9.834;2024-01-16T13:48:15;8.27;;;4.77;;
75823;SDS011;64457;51.976;9.834;2024-01-16T13:50:45;7.80;;;4.00;;
75823;SDS011;64457;51.976;9.834;2024-01-16T13:53:14;7.70;;;3.80;;
75823;SDS011;64457;51.976;9.834;2024-01-16T13:55:42;3.40;;;3.00;;
75823;SDS011;64457;51.976;9.834;2024-01-16T13:58:10;7.73;;;3.67;;
75823;SDS011;64457;51.976;9.834;2024-01-16T14:00:38;9.90;;;4.00;;
75823;SDS011;64457;51.976;9.834;2024-01-16T14:03:07;11.93;;;4.70;;
75823;SDS011;64457;51.976;9.834;2024-01-16T14:05:35;8.07;;;4.27;;
75823;SDS011;64457;51.976;9.834;2024-01-16T14:08:08;4.87;;;3.40;;
75823;SDS011;64457;51.976;9.834;2024-01-16T14:10:38;9.77;;;3.33;;
75823;SDS011;64457;51.976;9.834;2024-01-16T14:13:06;5.07;;;3.00;;
75823;SDS011;64457;51.976;9.834;2024-01-16T14:15:34;4.40;;;3.10;;
75823;SDS011;64457;51.976;9.834;2024-01-16T14:18:01;7.57;;;2.70;;
75823;SDS011;64457;51.976;9.834;2024-01-16T14:20:29;5.53;;;3.27;;
75823;SDS011;64457;51.976;9.834;2024-01-16T14:22:58;2.73;;;2.43;;
75823;SDS011;64457;51.976;9.834;2024-01-16T14:25:28;2.90;;;2.53;;
75823;SDS011;64457;51.976;9.834;2024-01-16T14:27:58;8.60;;;3.13;;
75823;SDS011;64457;51.976;9.834;2024-01-16T14:30:28;6.73;;;2.50;;
75823;SDS011;64457;51.976;9.834;2024-01-16T14:32:58;4.03;;;1.90;;
75823;SDS011;64457;51.976;9.834;2024-01-16T14:35:26;3.63;;;2.33;;
75823;SDS011;64457;51.976;9.834;2024-01-16T14:37:54;7.30;;;2.70;;
75823;SDS011;64457;51.976;9.834;2024-01-16T14:40:22;5.00;;;2.53;;
75823;SDS011;64457;51.976;9.834;2024-01-16T14:42:53;5.60;;;2.70;;
75823;SDS011;64457;51.976;9.834;2024-01-16T14:45:24;12.23;;;2.63;;
75823;SDS011;64457;51.976;9.834;2024-01-16T14:47:52;9.87;;;2.43;;
75823;SDS011;64457;51.976;9.834;2024-01-16T14:50:21;7.20;;;2.33;;
75823;SDS011;64457;51.976;9.834;2024-01-16T14:52:49;2.80;;;2.60;;
75823;SDS011;64457;51.976;9.834;2024-01-16T14:55:17;13.60;;;2.63;;
75823;SDS011;64457;51.976;9.834;2024-01-16T14:57:46;10.97;;;3.00;;
75823;SDS011;64457;51.976;9.834;2024-01-16T15:00:19;11.73;;;4.10;;
75823;SDS011;64457;51.976;9.834;2024-01-16T15:02:49;3.63;;;2.50;;
75823;SDS011;64457;51.976;9.834;2024-01-16T15:05:17;7.10;;;2.10;;
75823;SDS011;64457;51.976;9.834;2024-01-16T15:07:46;9.00;;;2.67;;
75823;SDS011;64457;51.976;9.834;2024-01-16T15:10:17;8.10;;;2.80;;